sensor_id;sensor_type;location;lat;lon;timestamp;pressure;altitude;pressure_sealevel;temperature;humidity
74544;BME280;63016;55.030;38.710;2023-06-26T00:02:13;99848.69;;;13.66;51.97
74544;BME280;63016;55.030;38.710;2023-06-26T00:04:39;99847.53;;;13.69;52.25
74544;BME280;63016;55.030;38.710;2023-06-26T00:07:05;99847.34;;;13.70;52.13
74544;BME280;63016;55.030;38.710;2023-06-26T00:09:30;99839.66;;;13.69;52.08
74544;BME280;63016;55.030;38.710;2023-06-26T00:11:56;99835.22;;;13.69;52.00
74544;BME280;63016;55.030;38.710;2023-06-26T00:14:21;99831.97;;;13.67;51.87
74544;BME280;63016;55.030;38.710;2023-06-26T00:16:47;99843.25;;;13.68;52.22
74544;BME280;63016;55.030;38.710;2023-06-26T00:19:16;99837.41;;;13.66;52.04
74544;BME280;63016;55.030;38.710;2023-06-26T00:21:42;99832.34;;;13.64;51.83
74544;BME280;63016;55.030;38.710;2023-06-26T00:24:12;99842.03;;;13.63;51.87
74544;BME280;63016;55.030;38.710;2023-06-26T00:26:38;99835.16;;;13.62;52.28
74544;BME280;63016;55.030;38.710;2023-06-26T00:29:04;99838.56;;;13.63;52.03
74544;BME280;63016;55.030;38.710;2023-06-26T00:31:30;99832.72;;;13.61;51.89
74544;BME280;63016;55.030;38.710;2023-06-26T00:33:55;99833.09;;;13.58;51.85
74544;BME280;63016;55.030;38.710;2023-06-26T00:36:21;99829.84;;;13.56;52.10
74544;BME280;63016;55.030;38.710;2023-06-26T00:38:49;99829.03;;;13.55;52.25
74544;BME280;63016;55.030;38.710;2023-06-26T00:41:15;99831.84;;;13.54;51.98
74544;BME280;63016;55.030;38.710;2023-06-26T00:43:40;99826.78;;;13.52;51.82
74544;BME280;63016;55.030;38.710;2023-06-26T00:46:10;99826.97;;;13.51;52.20
74544;BME280;63016;55.030;38.710;2023-06-26T00:48:36;99827.16;;;13.49;51.91
74544;BME280;63016;55.030;38.710;2023-06-26T00:51:02;99827.34;;;13.48;52.06
74544;BME280;63016;55.030;38.710;2023-06-26T00:53:28;99826.53;;;13.47;51.96
74544;BME280;63016;55.030;38.710;2023-06-26T00:55:54;99824.28;;;13.44;52.21
74544;BME280;63016;55.030;38.710;2023-06-26T00:58:23;99825.09;;;13.45;52.17
74544;BME280;63016;55.030;38.710;2023-06-26T01:00:50;99826.06;;;13.44;52.93
74544;BME280;63016;55.030;38.710;2023-06-26T01:03:16;99825.28;;;13.43;52.64
74544;BME280;63016;55.030;38.710;2023-06-26T01:05:42;99824.47;;;13.43;52.38
74544;BME280;63016;55.030;38.710;2023-06-26T01:08:11;99824.47;;;13.43;52.54
74544;BME280;63016;55.030;38.710;2023-06-26T01:10:37;99824.84;;;13.40;52.60
74544;BME280;63016;55.030;38.710;2023-06-26T01:13:03;99822.22;;;13.40;52.71
74544;BME280;63016;55.030;38.710;2023-06-26T01:15:29;99820.78;;;13.37;52.60
74544;BME280;63016;55.030;38.710;2023-06-26T01:17:57;99826.81;;;13.37;52.58
74544;BME280;63016;55.030;38.710;2023-06-26T01:20:32;99818.97;;;13.37;52.58
74544;BME280;63016;55.030;38.710;2023-06-26T01:23:22;99823.19;;;13.38;51.82
74544;BME280;63016;55.030;38.710;2023-06-26T01:28:42;99819.16;;;13.36;52.67
74544;BME280;63016;55.030;38.710;2023-06-26T01:31:08;99835.25;;;13.33;52.34
74544;BME280;63016;55.030;38.710;2023-06-26T01:33:36;99825.75;;;13.32;52.69
74544;BME280;63016;55.030;38.710;2023-06-26T01:36:02;99825.16;;;13.30;52.75
74544;BME280;63016;55.030;38.710;2023-06-26T01:38:28;99818.81;;;13.24;52.63
74544;BME280;63016;55.030;38.710;2023-06-26T01:40:54;99817.44;;;13.28;52.49
74544;BME280;63016;55.030;38.710;2023-06-26T01:46:06;99821.69;;;13.29;52.60
74544;BME280;63016;55.030;38.710;2023-06-26T01:48:45;99829.75;;;13.28;52.99
74544;BME280;63016;55.030;38.710;2023-06-26T01:51:14;99821.88;;;13.28;53.22
74544;BME280;63016;55.030;38.710;2023-06-26T01:53:46;99823.50;;;13.29;53.35
74544;BME280;63016;55.030;38.710;2023-06-26T01:56:16;99820.06;;;13.28;53.43
74544;BME280;63016;55.030;38.710;2023-06-26T01:58:46;99821.53;;;13.31;53.28
74544;BME280;63016;55.030;38.710;2023-06-26T02:01:15;99819.91;;;13.30;53.18
74544;BME280;63016;55.030;38.710;2023-06-26T02:03:41;99819.72;;;13.31;53.49
74544;BME280;63016;55.030;38.710;2023-06-26T02:06:07;99818.72;;;13.32;53.63
74544;BME280;63016;55.030;38.710;2023-06-26T02:08:32;99815.91;;;13.34;53.60
74544;BME280;63016;55.030;38.710;2023-06-26T02:10:58;99825.22;;;13.36;53.96
74544;BME280;63016;55.030;38.710;2023-06-26T02:13:23;99819.22;;;13.43;54.12
74544;BME280;63016;55.030;38.710;2023-06-26T02:15:49;99819.66;;;13.46;54.18
74544;BME280;63016;55.030;38.710;2023-06-26T02:18:14;99822.19;;;13.54;54.43
74544;BME280;63016;55.030;38.710;2023-06-26T02:20:39;99819.00;;;13.59;54.50
74544;BME280;63016;55.030;38.710;2023-06-26T02:23:05;99823.94;;;13.69;54.50
74544;BME280;63016;55.030;38.710;2023-06-26T02:25:30;99815.13;;;13.76;54.71
74544;BME280;63016;55.030;38.710;2023-06-26T02:27:56;99819.22;;;13.85;54.85
74544;BME280;63016;55.030;38.710;2023-06-26T02:30:21;99825.59;;;13.98;55.08
74544;BME280;63016;55.030;38.710;2023-06-26T02:32:47;99824.28;;;14.08;55.14
74544;BME280;63016;55.030;38.710;2023-06-26T02:35:13;99825.81;;;14.24;55.66
74544;BME280;63016;55.030;38.710;2023-06-26T02:37:38;99831.59;;;14.41;56.08
74544;BME280;63016;55.030;38.710;2023-06-26T02:40:04;99818.97;;;14.51;55.68
74544;BME280;63016;55.030;38.710;2023-06-26T02:42:31;99818.63;;;14.68;56.23
74544;BME280;63016;55.030;38.710;2023-06-26T02:44:56;99829.22;;;14.81;56.50
74544;BME280;63016;55.030;38.710;2023-06-26T02:47:22;99829.28;;;14.94;56.51
74544;BME280;63016;55.030;38.710;2023-06-26T02:49:47;99821.44;;;15.07;56.44
74544;BME280;63016;55.030;38.710;2023-06-26T02:52:13;99824.13;;;15.21;56.55
74544;BME280;63016;55.030;38.710;2023-06-26T02:54:38;99823.53;;;15.32;56.78
74544;BME280;63016;55.030;38.710;2023-06-26T02:57:04;99823.38;;;15.47;56.77
74544;BME280;63016;55.030;38.710;2023-06-26T02:59:30;99819.59;;;15.62;56.34
74544;BME280;63016;55.030;38.710;2023-06-26T03:01:55;99819.44;;;15.77;57.11
74544;BME280;63016;55.030;38.710;2023-06-26T03:04:21;99821.88;;;15.92;56.11
74544;BME280;63016;55.030;38.710;2023-06-26T03:06:47;99823.06;;;16.09;55.44
74544;BME280;63016;55.030;38.710;2023-06-26T03:09:12;99817.59;;;16.24;55.15
74544;BME280;63016;55.030;38.710;2023-06-26T03:11:38;99822.03;;;16.37;55.62
74544;BME280;63016;55.030;38.710;2023-06-26T03:14:03;99830.13;;;16.49;55.86
74544;BME280;63016;55.030;38.710;2023-06-26T03:16:28;99824.44;;;16.65;55.45
74544;BME280;63016;55.030;38.710;2023-06-26T03:18:54;99820.97;;;16.78;55.39
74544;BME280;63016;55.030;38.710;2023-06-26T03:21:19;99829.84;;;16.90;55.05
74544;BME280;63016;55.030;38.710;2023-06-26T03:23:45;99829.59;;;17.05;55.25
74544;BME280;63016;55.030;38.710;2023-06-26T03:26:10;99829.53;;;17.18;55.26
74544;BME280;63016;55.030;38.710;2023-06-26T03:28:36;99829.50;;;17.31;55.28
74544;BME280;63016;55.030;38.710;2023-06-26T03:31:01;99829.38;;;17.44;55.04
74544;BME280;63016;55.030;38.710;2023-06-26T03:33:27;99821.00;;;17.54;54.82
74544;BME280;63016;55.030;38.710;2023-06-26T03:35:52;99819.31;;;17.66;54.57
74544;BME280;63016;55.030;38.710;2023-06-26T03:38:18;99820.09;;;17.73;54.83
74544;BME280;63016;55.030;38.710;2023-06-26T03:40:44;99819.44;;;17.85;54.36
74544;BME280;63016;55.030;38.710;2023-06-26T03:43:09;99811.22;;;17.93;54.18
74544;BME280;63016;55.030;38.710;2023-06-26T03:45:35;99821.31;;;18.03;54.15
74544;BME280;63016;55.030;38.710;2023-06-26T03:48:00;99820.47;;;18.09;54.21
74544;BME280;63016;55.030;38.710;2023-06-26T03:50:26;99825.69;;;18.15;54.29
74544;BME280;63016;55.030;38.710;2023-06-26T03:52:51;99818.13;;;18.19;54.00
74544;BME280;63016;55.030;38.710;2023-06-26T03:55:17;99826.78;;;18.26;54.13
74544;BME280;63016;55.030;38.710;2023-06-26T03:57:43;99832.84;;;18.33;54.42
74544;BME280;63016;55.030;38.710;2023-06-26T04:00:09;99834.38;;;18.41;54.13
74544;BME280;63016;55.030;38.710;2023-06-26T04:02:35;99826.59;;;18.46;54.07
74544;BME280;63016;55.030;38.710;2023-06-26T04:05:01;99829.19;;;18.53;54.56
74544;BME280;63016;55.030;38.710;2023-06-26T04:07:26;99833.59;;;18.59;54.41
74544;BME280;63016;55.030;38.710;2023-06-26T04:09:52;99835.16;;;18.66;54.21
74544;BME280;63016;55.030;38.710;2023-06-26T04:12:17;99833.28;;;18.73;54.76
74544;BME280;63016;55.030;38.710;2023-06-26T04:14:43;99834.59;;;18.83;54.26
74544;BME280;63016;55.030;38.710;2023-06-26T04:17:09;99836.94;;;18.91;54.04
74544;BME280;63016;55.030;38.710;2023-06-26T04:19:35;99841.91;;;18.99;54.09
74544;BME280;63016;55.030;38.710;2023-06-26T04:22:01;99841.63;;;19.07;54.47
74544;BME280;63016;55.030;38.710;2023-06-26T04:24:27;99833.59;;;19.14;54.03
74544;BME280;63016;55.030;38.710;2023-06-26T04:26:53;99829.63;;;19.23;53.66
74544;BME280;63016;55.030;38.710;2023-06-26T04:29:18;99827.72;;;19.30;53.46
74544;BME280;63016;55.030;38.710;2023-06-26T04:31:43;99822.69;;;19.40;53.62
74544;BME280;63016;55.030;38.710;2023-06-26T04:34:13;99829.47;;;19.48;53.50
74544;BME280;63016;55.030;38.710;2023-06-26T04:36:38;99822.63;;;19.59;53.53
74544;BME280;63016;55.030;38.710;2023-06-26T04:39:04;99823.97;;;19.68;53.21
74544;BME280;63016;55.030;38.710;2023-06-26T04:41:30;99823.41;;;19.77;52.87
74544;BME280;63016;55.030;38.710;2023-06-26T04:43:55;99823.06;;;19.86;52.99
74544;BME280;63016;55.030;38.710;2023-06-26T04:46:21;99826.75;;;19.96;53.03
74544;BME280;63016;55.030;38.710;2023-06-26T04:48:46;99826.19;;;20.06;52.32
74544;BME280;63016;55.030;38.710;2023-06-26T04:51:12;99813.66;;;20.13;52.20
74544;BME280;63016;55.030;38.710;2023-06-26T04:53:37;99808.22;;;20.20;52.47
74544;BME280;63016;55.030;38.710;2023-06-26T04:56:03;99812.75;;;20.31;52.23
74544;BME280;63016;55.030;38.710;2023-06-26T04:58:29;99813.41;;;20.38;51.94
74544;BME280;63016;55.030;38.710;2023-06-26T05:00:54;99816.75;;;20.45;51.98
74544;BME280;63016;55.030;38.710;2023-06-26T05:03:19;99817.22;;;20.54;52.01
74544;BME280;63016;55.030;38.710;2023-06-26T05:05:46;99811.56;;;20.62;51.85
74544;BME280;63016;55.030;38.710;2023-06-26T05:08:15;99808.31;;;20.72;51.85
74544;BME280;63016;55.030;38.710;2023-06-26T05:10:41;99799.78;;;20.82;52.09
74544;BME280;63016;55.030;38.710;2023-06-26T05:13:06;99807.47;;;20.95;52.02
74544;BME280;63016;55.030;38.710;2023-06-26T05:15:32;99805.00;;;21.05;51.42
74544;BME280;63016;55.030;38.710;2023-06-26T05:17:57;99806.59;;;21.18;51.38
74544;BME280;63016;55.030;38.710;2023-06-26T05:20:23;99806.19;;;21.26;51.06
74544;BME280;63016;55.030;38.710;2023-06-26T05:22:49;99798.69;;;21.35;52.07
74544;BME280;63016;55.030;38.710;2023-06-26T05:25:15;99796.78;;;21.47;51.84
74544;BME280;63016;55.030;38.710;2023-06-26T05:30:26;99793.03;;;21.76;52.06
74544;BME280;63016;55.030;38.710;2023-06-26T05:32:55;99800.19;;;21.93;52.08
74544;BME280;63016;55.030;38.710;2023-06-26T05:35:28;99801.00;;;22.10;51.48
74544;BME280;63016;55.030;38.710;2023-06-26T05:37:55;99802.78;;;22.21;50.86
74544;BME280;63016;55.030;38.710;2023-06-26T05:40:21;99794.13;;;22.31;50.77
74544;BME280;63016;55.030;38.710;2023-06-26T05:42:47;99792.91;;;22.39;50.92
74544;BME280;63016;55.030;38.710;2023-06-26T05:45:12;99793.59;;;22.51;50.71
74544;BME280;63016;55.030;38.710;2023-06-26T05:47:38;99793.47;;;22.63;50.48
74544;BME280;63016;55.030;38.710;2023-06-26T05:52:48;99794.53;;;22.83;50.51
74544;BME280;63016;55.030;38.710;2023-06-26T05:55:14;99795.75;;;22.93;50.53
74544;BME280;63016;55.030;38.710;2023-06-26T05:57:40;99794.78;;;23.04;50.38
74544;BME280;63016;55.030;38.710;2023-06-26T06:00:07;99794.69;;;23.21;49.40
74544;BME280;63016;55.030;38.710;2023-06-26T06:02:39;99799.03;;;23.27;49.16
74544;BME280;63016;55.030;38.710;2023-06-26T06:05:06;99799.63;;;23.34;49.28
74544;BME280;63016;55.030;38.710;2023-06-26T06:10:18;99797.97;;;23.55;49.50
74544;BME280;63016;55.030;38.710;2023-06-26T06:12:44;99803.16;;;23.67;49.67
74544;BME280;63016;55.030;38.710;2023-06-26T06:15:09;99802.97;;;23.78;49.38
74544;BME280;63016;55.030;38.710;2023-06-26T06:17:35;99793.44;;;23.88;48.66
74544;BME280;63016;55.030;38.710;2023-06-26T06:20:01;99795.09;;;23.94;48.88
74544;BME280;63016;55.030;38.710;2023-06-26T06:22:26;99795.94;;;23.99;49.55
74544;BME280;63016;55.030;38.710;2023-06-26T06:24:52;99795.72;;;24.06;48.79
74544;BME280;63016;55.030;38.710;2023-06-26T06:27:17;99796.81;;;24.10;48.65
74544;BME280;63016;55.030;38.710;2023-06-26T06:30:01;99801.66;;;24.18;49.54
74544;BME280;63016;55.030;38.710;2023-06-26T06:32:28;99795.56;;;24.23;49.03
74544;BME280;63016;55.030;38.710;2023-06-26T06:34:53;99788.41;;;24.28;48.64
74544;BME280;63016;55.030;38.710;2023-06-26T06:37:19;99788.94;;;24.35;47.67
74544;BME280;63016;55.030;38.710;2023-06-26T06:39:44;99790.59;;;24.42;48.67
74544;BME280;63016;55.030;38.710;2023-06-26T06:42:09;99784.50;;;24.51;48.11
74544;BME280;63016;55.030;38.710;2023-06-26T06:44:35;99789.09;;;24.61;48.18
74544;BME280;63016;55.030;38.710;2023-06-26T06:47:00;99784.06;;;24.70;48.31
74544;BME280;63016;55.030;38.710;2023-06-26T06:49:26;99783.06;;;24.81;48.16
74544;BME280;63016;55.030;38.710;2023-06-26T06:51:51;99780.94;;;24.88;47.94
74544;BME280;63016;55.030;38.710;2023-06-26T06:54:17;99779.63;;;24.96;48.43
74544;BME280;63016;55.030;38.710;2023-06-26T06:56:43;99783.41;;;25.05;47.97
74544;BME280;63016;55.030;38.710;2023-06-26T06:59:08;99781.00;;;25.08;46.73
74544;BME280;63016;55.030;38.710;2023-06-26T07:01:34;99770.59;;;25.07;46.82
74544;BME280;63016;55.030;38.710;2023-06-26T07:04:18;99769.78;;;25.06;47.31
74544;BME280;63016;55.030;38.710;2023-06-26T07:12:30;99767.72;;;25.44;46.00
74544;BME280;63016;55.030;38.710;2023-06-26T07:18:17;99772.25;;;25.69;48.07
74544;BME280;63016;55.030;38.710;2023-06-26T07:20:42;99768.00;;;25.78;46.74
74544;BME280;63016;55.030;38.710;2023-06-26T07:23:26;99772.00;;;25.86;46.55
74544;BME280;63016;55.030;38.710;2023-06-26T07:25:52;99762.66;;;25.88;46.10
74544;BME280;63016;55.030;38.710;2023-06-26T07:28:17;99768.78;;;25.94;45.02
74544;BME280;63016;55.030;38.710;2023-06-26T07:33:46;99762.38;;;25.95;44.53
74544;BME280;63016;55.030;38.710;2023-06-26T07:36:11;99755.16;;;25.91;45.18
74544;BME280;63016;55.030;38.710;2023-06-26T07:38:36;99755.72;;;25.87;44.75
74544;BME280;63016;55.030;38.710;2023-06-26T07:41:39;99755.16;;;25.70;45.85
74544;BME280;63016;55.030;38.710;2023-06-26T07:44:24;99745.56;;;25.54;45.88
74544;BME280;63016;55.030;38.710;2023-06-26T07:49:33;99746.06;;;25.46;45.10
74544;BME280;63016;55.030;38.710;2023-06-26T07:51:59;99757.28;;;25.48;45.06
74544;BME280;63016;55.030;38.710;2023-06-26T07:55:02;99749.28;;;25.48;46.05
74544;BME280;63016;55.030;38.710;2023-06-26T07:57:29;99750.06;;;25.38;44.61
74544;BME280;63016;55.030;38.710;2023-06-26T07:59:55;99754.63;;;25.32;45.48
74544;BME280;63016;55.030;38.710;2023-06-26T08:05:05;99746.34;;;25.39;45.73
74544;BME280;63016;55.030;38.710;2023-06-26T08:07:31;99751.16;;;25.37;43.98
74544;BME280;63016;55.030;38.710;2023-06-26T08:10:15;99755.69;;;25.26;44.74
74544;BME280;63016;55.030;38.710;2023-06-26T08:12:58;99749.81;;;25.24;45.99
74544;BME280;63016;55.030;38.710;2023-06-26T08:15:24;99746.06;;;25.30;45.01
74544;BME280;63016;55.030;38.710;2023-06-26T08:17:49;99743.13;;;25.32;44.58
74544;BME280;63016;55.030;38.710;2023-06-26T08:20:15;99748.19;;;25.33;45.06
74544;BME280;63016;55.030;38.710;2023-06-26T08:23:00;99750.34;;;25.42;45.98
74544;BME280;63016;55.030;38.710;2023-06-26T08:25:25;99738.88;;;25.36;44.19
74544;BME280;63016;55.030;38.710;2023-06-26T08:27:51;99751.16;;;25.37;44.52
74544;BME280;63016;55.030;38.710;2023-06-26T08:30:36;99734.31;;;25.36;43.60
74544;BME280;63016;55.030;38.710;2023-06-26T08:33:20;99737.53;;;25.38;45.34
74544;BME280;63016;55.030;38.710;2023-06-26T08:35:45;99735.91;;;25.32;43.75
74544;BME280;63016;55.030;38.710;2023-06-26T08:41:13;99739.09;;;25.14;44.23
74544;BME280;63016;55.030;38.710;2023-06-26T08:49:34;99738.56;;;25.07;46.68
74544;BME280;63016;55.030;38.710;2023-06-26T08:52:17;99730.56;;;25.17;45.41
74544;BME280;63016;55.030;38.710;2023-06-26T08:58:04;99727.38;;;25.35;43.61
74544;BME280;63016;55.030;38.710;2023-06-26T09:00:48;99726.88;;;25.38;44.06
74544;BME280;63016;55.030;38.710;2023-06-26T09:03:15;99721.75;;;25.37;43.46
74544;BME280;63016;55.030;38.710;2023-06-26T09:05:41;99730.56;;;25.37;43.05
74544;BME280;63016;55.030;38.710;2023-06-26T09:08:25;99728.19;;;25.26;44.28
74544;BME280;63016;55.030;38.710;2023-06-26T09:10:51;99736.47;;;25.19;43.87
74544;BME280;63016;55.030;38.710;2023-06-26T09:13:36;99729.78;;;25.17;44.24
74544;BME280;63016;55.030;38.710;2023-06-26T09:16:06;99731.66;;;25.16;44.16
74544;BME280;63016;55.030;38.710;2023-06-26T09:18:52;99734.31;;;25.21;44.86
74544;BME280;63016;55.030;38.710;2023-06-26T09:21:18;99731.94;;;25.20;43.77
74544;BME280;63016;55.030;38.710;2023-06-26T09:23:43;99735.38;;;25.20;44.18
74544;BME280;63016;55.030;38.710;2023-06-26T09:26:09;99735.91;;;25.22;44.46
74544;BME280;63016;55.030;38.710;2023-06-26T09:28:35;99746.31;;;25.24;44.82
74544;BME280;63016;55.030;38.710;2023-06-26T09:31:02;99751.13;;;25.17;45.05
74544;BME280;63016;55.030;38.710;2023-06-26T09:33:33;99760.16;;;25.00;45.29
74544;BME280;63016;55.030;38.710;2023-06-26T09:36:01;99765.72;;;24.88;45.79
74544;BME280;63016;55.030;38.710;2023-06-26T09:38:45;99758.19;;;24.75;46.25
74544;BME280;63016;55.030;38.710;2023-06-26T09:41:11;99756.84;;;24.63;47.16
74544;BME280;63016;55.030;38.710;2023-06-26T09:43:48;99758.13;;;24.50;47.10
74544;BME280;63016;55.030;38.710;2023-06-26T09:46:17;99755.63;;;24.33;48.12
74544;BME280;63016;55.030;38.710;2023-06-26T09:48:43;99744.06;;;24.17;47.89
74544;BME280;63016;55.030;38.710;2023-06-26T09:51:10;99737.06;;;24.06;48.51
74544;BME280;63016;55.030;38.710;2023-06-26T09:53:35;99725.06;;;23.98;48.62
74544;BME280;63016;55.030;38.710;2023-06-26T09:56:15;99723.97;;;23.94;48.30
74544;BME280;63016;55.030;38.710;2023-06-26T09:58:42;99726.06;;;23.92;49.01
74544;BME280;63016;55.030;38.710;2023-06-26T10:01:08;99717.00;;;23.93;48.28
74544;BME280;63016;55.030;38.710;2023-06-26T10:06:21;99717.81;;;23.94;49.48
74544;BME280;63016;55.030;38.710;2023-06-26T10:08:50;99711.97;;;23.97;48.85
74544;BME280;63016;55.030;38.710;2023-06-26T10:11:19;99723.16;;;23.94;48.40
74544;BME280;63016;55.030;38.710;2023-06-26T10:13:50;99724.47;;;23.91;48.55
74544;BME280;63016;55.030;38.710;2023-06-26T10:16:23;99716.19;;;23.93;49.28
74544;BME280;63016;55.030;38.710;2023-06-26T10:18:53;99707.97;;;23.94;48.50
74544;BME280;63016;55.030;38.710;2023-06-26T10:21:22;99710.13;;;24.02;48.22
74544;BME280;63016;55.030;38.710;2023-06-26T10:26:38;99706.25;;;24.25;48.56
74544;BME280;63016;55.030;38.710;2023-06-26T10:29:05;99703.66;;;24.41;47.56
74544;BME280;63016;55.030;38.710;2023-06-26T10:31:52;99700.25;;;24.55;46.99
74544;BME280;63016;55.030;38.710;2023-06-26T10:34:21;99708.56;;;24.69;47.04
74544;BME280;63016;55.030;38.710;2023-06-26T10:36:47;99703.53;;;24.83;46.75
74544;BME280;63016;55.030;38.710;2023-06-26T10:39:17;99703.81;;;24.97;46.16
74544;BME280;63016;55.030;38.710;2023-06-26T10:41:42;99700.69;;;25.10;45.95
74544;BME280;63016;55.030;38.710;2023-06-26T10:44:12;99681.44;;;25.23;45.98
74544;BME280;63016;55.030;38.710;2023-06-26T10:49:21;99686.50;;;25.50;45.01
74544;BME280;63016;55.030;38.710;2023-06-26T10:51:50;99682.50;;;25.58;44.41
74544;BME280;63016;55.030;38.710;2023-06-26T10:54:18;99679.81;;;25.68;44.28
74544;BME280;63016;55.030;38.710;2023-06-26T10:59:16;99669.91;;;25.89;43.77
74544;BME280;63016;55.030;38.710;2023-06-26T11:01:43;99665.84;;;26.02;44.47
74544;BME280;63016;55.030;38.710;2023-06-26T11:04:09;99662.56;;;26.15;44.82
74544;BME280;63016;55.030;38.710;2023-06-26T11:06:37;99656.94;;;26.27;43.74
74544;BME280;63016;55.030;38.710;2023-06-26T11:14:21;99646.13;;;26.52;43.34
74544;BME280;63016;55.030;38.710;2023-06-26T11:16:47;99643.41;;;26.57;42.30
74544;BME280;63016;55.030;38.710;2023-06-26T11:19:16;99644.75;;;26.60;43.08
74544;BME280;63016;55.030;38.710;2023-06-26T11:21:41;99639.88;;;26.67;43.19
74544;BME280;63016;55.030;38.710;2023-06-26T11:24:07;99642.78;;;26.71;43.12
74544;BME280;63016;55.030;38.710;2023-06-26T11:26:43;99645.44;;;26.76;43.81
74544;BME280;63016;55.030;38.710;2023-06-26T11:29:27;99634.34;;;26.87;43.18
74544;BME280;63016;55.030;38.710;2023-06-26T11:31:58;99624.59;;;27.02;43.51
74544;BME280;63016;55.030;38.710;2023-06-26T11:34:30;99629.34;;;27.15;43.44
74544;BME280;63016;55.030;38.710;2023-06-26T11:36:56;99636.22;;;27.26;42.54
74544;BME280;63016;55.030;38.710;2023-06-26T11:39:22;99627.63;;;27.29;42.15
74544;BME280;63016;55.030;38.710;2023-06-26T11:41:48;99626.81;;;27.29;41.35
74544;BME280;63016;55.030;38.710;2023-06-26T11:44:14;99615.56;;;27.27;41.79
74544;BME280;63016;55.030;38.710;2023-06-26T11:47:03;99616.91;;;27.29;43.19
74544;BME280;63016;55.030;38.710;2023-06-26T11:49:29;99625.50;;;27.26;41.94
74544;BME280;63016;55.030;38.710;2023-06-26T11:51:54;99622.25;;;27.29;42.77
74544;BME280;63016;55.030;38.710;2023-06-26T11:54:27;99613.19;;;27.25;42.83
74544;BME280;63016;55.030;38.710;2023-06-26T11:56:56;99619.28;;;27.31;42.66
74544;BME280;63016;55.030;38.710;2023-06-26T11:59:22;99622.22;;;27.34;42.17
74544;BME280;63016;55.030;38.710;2023-06-26T12:01:49;99614.47;;;27.33;42.74
74544;BME280;63016;55.030;38.710;2023-06-26T12:04:17;99617.34;;;27.36;43.15
74544;BME280;63016;55.030;38.710;2023-06-26T12:06:49;99615.16;;;27.44;43.26
74544;BME280;63016;55.030;38.710;2023-06-26T12:09:17;99606.78;;;27.50;42.94
74544;BME280;63016;55.030;38.710;2023-06-26T12:11:44;99608.03;;;27.58;41.88
74544;BME280;63016;55.030;38.710;2023-06-26T12:14:13;99607.97;;;27.63;41.56
74544;BME280;63016;55.030;38.710;2023-06-26T12:16:39;99606.81;;;27.74;43.12
74544;BME280;63016;55.030;38.710;2023-06-26T12:19:07;99606.41;;;27.86;42.25
74544;BME280;63016;55.030;38.710;2023-06-26T12:24:23;99599.72;;;27.83;41.62
74544;BME280;63016;55.030;38.710;2023-06-26T12:26:54;99601.91;;;27.81;41.55
74544;BME280;63016;55.030;38.710;2023-06-26T12:29:29;99598.63;;;27.84;41.63
74544;BME280;63016;55.030;38.710;2023-06-26T12:31:54;99598.63;;;27.84;41.39
74544;BME280;63016;55.030;38.710;2023-06-26T12:34:33;99594.06;;;27.85;42.50
74544;BME280;63016;55.030;38.710;2023-06-26T12:37:05;99594.97;;;27.80;41.61
74544;BME280;63016;55.030;38.710;2023-06-26T12:39:45;99599.06;;;27.73;42.11
74544;BME280;63016;55.030;38.710;2023-06-26T12:42:14;99594.50;;;27.73;41.53
74544;BME280;63016;55.030;38.710;2023-06-26T12:44:40;99596.56;;;27.81;40.87
74544;BME280;63016;55.030;38.710;2023-06-26T12:47:06;99595.41;;;27.87;40.99
74544;BME280;63016;55.030;38.710;2023-06-26T12:49:51;99586.78;;;27.90;42.06
74544;BME280;63016;55.030;38.710;2023-06-26T12:52:17;99580.41;;;27.86;40.11
74544;BME280;63016;55.030;38.710;2023-06-26T12:54:49;99586.09;;;27.80;40.61
74544;BME280;63016;55.030;38.710;2023-06-26T12:57:16;99579.72;;;27.76;40.82
74544;BME280;63016;55.030;38.710;2023-06-26T13:02:26;99566.41;;;27.89;41.59
74544;BME280;63016;55.030;38.710;2023-06-26T13:04:52;99568.16;;;27.99;41.16
74544;BME280;63016;55.030;38.710;2023-06-26T13:07:17;99567.81;;;28.06;40.42
74544;BME280;63016;55.030;38.710;2023-06-26T13:09:43;99561.78;;;28.14;40.18
74544;BME280;63016;55.030;38.710;2023-06-26T13:12:10;99554.75;;;28.18;40.08
74544;BME280;63016;55.030;38.710;2023-06-26T13:17:20;99557.69;;;28.40;40.02
74544;BME280;63016;55.030;38.710;2023-06-26T13:19:45;99554.84;;;28.51;40.06
74544;BME280;63016;55.030;38.710;2023-06-26T13:22:11;99553.47;;;28.53;39.00
74544;BME280;63016;55.030;38.710;2023-06-26T13:24:36;99561.31;;;28.50;39.92
74544;BME280;63016;55.030;38.710;2023-06-26T13:27:02;99548.22;;;28.43;39.53
74544;BME280;63016;55.030;38.710;2023-06-26T13:29:46;99543.88;;;28.28;38.48
74544;BME280;63016;55.030;38.710;2023-06-26T13:32:11;99555.78;;;28.22;39.59
74544;BME280;63016;55.030;38.710;2023-06-26T13:34:37;99549.47;;;28.13;37.86
74544;BME280;63016;55.030;38.710;2023-06-26T13:37:02;99548.31;;;28.00;38.21
74544;BME280;63016;55.030;38.710;2023-06-26T13:39:28;99555.66;;;27.89;38.64
74544;BME280;63016;55.030;38.710;2023-06-26T13:41:53;99552.06;;;27.80;38.51
74544;BME280;63016;55.030;38.710;2023-06-26T13:44:19;99544.69;;;27.67;38.80
74544;BME280;63016;55.030;38.710;2023-06-26T13:46:44;99546.63;;;27.61;38.40
74544;BME280;63016;55.030;38.710;2023-06-26T13:49:10;99551.53;;;27.54;38.78
74544;BME280;63016;55.030;38.710;2023-06-26T13:51:35;99549.69;;;27.50;38.71
74544;BME280;63016;55.030;38.710;2023-06-26T13:54:01;99552.75;;;27.43;38.13
74544;BME280;63016;55.030;38.710;2023-06-26T13:56:26;99556.09;;;27.30;37.93
74544;BME280;63016;55.030;38.710;2023-06-26T13:58:53;99557.28;;;27.19;38.01
74544;BME280;63016;55.030;38.710;2023-06-26T14:01:37;99561.38;;;27.06;38.09
74544;BME280;63016;55.030;38.710;2023-06-26T14:04:04;99561.81;;;26.89;38.30